Česky Dansk Deutsch English Español Suomi Français Magyar Italiano Nederlands norsk Polski Português svenska Türkçe

 

Het Weer

Berlin-Schoenefeld (Duitsland)

22:50, 22 augustus 2016 (GMT)

NWNNE
WE
SWSSE
Home            
Berlin-Schoenefeld Berlin-Tempelhof Berlin-Tegel Holzdorf Cottbus Flugplatz Preschen Wittstock Magdeburg, Sachsen-Anhalt Szczecin Trollenhagen Leipzig-Schkeuditz Dresden-Klotzsche Zielona Gora Mecklenburg-Vorpommern, Parchim Heringsdorf Altenburg Nobitz Laage Liberec Braunschweig Poznan Fassberg Erfurt-Bindersleben Celle

Om een weerknop op uw website of weblog te plaatsen, copieer onderstaande code en plak die in uw pagina. In het eerste vakje staat HTML-code, in het tweede vakje UBB-code.


Add to Google

Details

Wind speed:2 bf, 5 kn, 2.6 m/s, 5.8 miles/h, 9.3 km/h
Wind direction:SW, 230°
Visibility:Greater than 10000 m, 10 km, 32800 ft, 6.2 miles
Clouds:CAVOC
Temperature:18°C, 64°F
Dew-point:13°C, 55°F
Atmospheric pressure:1026 hPa, 769.6 mmHg, 30.30 inHg, 1.013 atm
Relative humidity:72.6 %
METAR:EDDB 222250Z 23005KT CAVOK 18/13 Q1026 NOSIG

Snelkoppelingen

Actuele weersinformatie van de hele wereld. Voeg locaties toe met het plus (+) symbool. Deze snelkoppelingen kunnen worden toegevoegd aan Google.

Lid van de Technetium groep

website free tracking
StatCounter NetStat W3C Validator

05-10-2022 06:03:57
astro.technetium.be money.technetium.be phote.technetium.be tafeltennistafel.technetium.be www.ligfiets.net